sensor_id;sensor_type;location;lat;lon;timestamp;pressure;altitude;pressure_sealevel;temperature;humidity
79563;BME280;69026;50.980;11.314;2023-04-03T00:01:02;100144.38;;;16.74;58.53
79563;BME280;69026;50.980;11.314;2023-04-03T00:03:29;100132.94;;;16.65;58.81
79563;BME280;69026;50.980;11.314;2023-04-03T00:05:54;100145.19;;;16.63;58.82
79563;BME280;69026;50.980;11.314;2023-04-03T00:08:20;100141.84;;;16.61;58.96
79563;BME280;69026;50.980;11.314;2023-04-03T00:10:46;100152.25;;;16.59;58.90
79563;BME280;69026;50.980;11.314;2023-04-03T00:13:12;100149.94;;;16.56;58.93
79563;BME280;69026;50.980;11.314;2023-04-03T00:15:38;100146.59;;;16.53;59.22
79563;BME280;69026;50.980;11.314;2023-04-03T00:18:05;100143.41;;;16.45;59.32
79563;BME280;69026;50.980;11.314;2023-04-03T00:20:32;100154.97;;;16.47;59.13
79563;BME280;69026;50.980;11.314;2023-04-03T00:22:59;100154.56;;;16.43;59.28
79563;BME280;69026;50.980;11.314;2023-04-03T00:25:25;100155.50;;;16.37;59.42
79563;BME280;69026;50.980;11.314;2023-04-03T00:27:51;100154.31;;;16.33;59.59
79563;BME280;69026;50.980;11.314;2023-04-03T00:30:19;100165.97;;;16.28;59.83
79563;BME280;69026;50.980;11.314;2023-04-03T00:32:48;100164.41;;;16.21;60.22
79563;BME280;69026;50.980;11.314;2023-04-03T00:35:14;100140.69;;;16.15;60.02
79563;BME280;69026;50.980;11.314;2023-04-03T00:37:41;100153.91;;;16.18;60.09
79563;BME280;69026;50.980;11.314;2023-04-03T00:40:08;100162.38;;;16.16;60.21
79563;BME280;69026;50.980;11.314;2023-04-03T00:42:36;100155.44;;;16.14;60.11
79563;BME280;69026;50.980;11.314;2023-04-03T00:47:30;100162.44;;;16.09;60.31
79563;BME280;69026;50.980;11.314;2023-04-03T00:49:58;100154.72;;;16.06;60.36
79563;BME280;69026;50.980;11.314;2023-04-03T00:52:28;100161.22;;;16.05;60.42
79563;BME280;69026;50.980;11.314;2023-04-03T00:55:00;100157.28;;;16.01;60.51
79563;BME280;69026;50.980;11.314;2023-04-03T00:57:27;100154.53;;;16.01;60.57
79563;BME280;69026;50.980;11.314;2023-04-03T00:59:59;100161.72;;;16.02;60.46
79563;BME280;69026;50.980;11.314;2023-04-03T01:02:27;100152.88;;;16.00;60.36
79563;BME280;69026;50.980;11.314;2023-04-03T01:04:53;100160.19;;;16.06;60.22
79563;BME280;69026;50.980;11.314;2023-04-03T01:07:26;100158.03;;;16.08;60.16
79563;BME280;69026;50.980;11.314;2023-04-03T01:10:00;100163.75;;;16.07;60.12
79563;BME280;69026;50.980;11.314;2023-04-03T01:12:30;100166.72;;;16.05;60.14
79563;BME280;69026;50.980;11.314;2023-04-03T01:14:58;100166.56;;;16.00;60.31
79563;BME280;69026;50.980;11.314;2023-04-03T01:28:08;100174.03;;;15.93;60.49
79563;BME280;69026;50.980;11.314;2023-04-03T01:30:38;100169.88;;;15.90;60.80
79563;BME280;69026;50.980;11.314;2023-04-03T01:33:07;100168.66;;;15.86;60.57
79563;BME280;69026;50.980;11.314;2023-04-03T01:35:32;100169.47;;;15.87;60.61
79563;BME280;69026;50.980;11.314;2023-04-03T01:37:58;100176.84;;;15.86;60.58
79563;BME280;69026;50.980;11.314;2023-04-03T01:40:25;100179.81;;;15.85;60.61
79563;BME280;69026;50.980;11.314;2023-04-03T01:42:51;100179.59;;;15.86;60.54
79563;BME280;69026;50.980;11.314;2023-04-03T01:45:17;100178.16;;;15.84;60.58
79563;BME280;69026;50.980;11.314;2023-04-03T01:47:43;100175.41;;;15.84;60.61
79563;BME280;69026;50.980;11.314;2023-04-03T01:50:09;100180.06;;;15.83;60.27
79563;BME280;69026;50.980;11.314;2023-04-03T01:52:36;100183.63;;;15.84;60.70
79563;BME280;69026;50.980;11.314;2023-04-03T01:55:02;100180.28;;;15.82;60.64
79563;BME280;69026;50.980;11.314;2023-04-03T01:57:28;100184.69;;;15.83;60.37
79563;BME280;69026;50.980;11.314;2023-04-03T01:59:54;100188.88;;;15.85;60.43
79563;BME280;69026;50.980;11.314;2023-04-03T02:02:20;100184.25;;;15.86;60.41
79563;BME280;69026;50.980;11.314;2023-04-03T02:04:46;100188.03;;;15.85;60.38
79563;BME280;69026;50.980;11.314;2023-04-03T02:07:12;100191.84;;;15.84;60.39
79563;BME280;69026;50.980;11.314;2023-04-03T02:09:37;100187.44;;;15.83;60.22
79563;BME280;69026;50.980;11.314;2023-04-03T02:12:03;100181.78;;;15.78;60.56
79563;BME280;69026;50.980;11.314;2023-04-03T02:14:31;100190.88;;;15.78;60.46
79563;BME280;69026;50.980;11.314;2023-04-03T02:16:56;100193.59;;;15.78;60.49
79563;BME280;69026;50.980;11.314;2023-04-03T02:19:23;100184.16;;;15.74;60.59
79563;BME280;69026;50.980;11.314;2023-04-03T02:21:49;100191.09;;;15.77;60.56
79563;BME280;69026;50.980;11.314;2023-04-03T02:24:14;100194.03;;;15.75;60.51
79563;BME280;69026;50.980;11.314;2023-04-03T02:26:40;100197.63;;;15.76;60.63
79563;BME280;69026;50.980;11.314;2023-04-03T02:29:06;100205.84;;;15.76;60.47
79563;BME280;69026;50.980;11.314;2023-04-03T02:31:32;100207.97;;;15.74;60.47
79563;BME280;69026;50.980;11.314;2023-04-03T02:34:00;100207.97;;;15.74;60.44
79563;BME280;69026;50.980;11.314;2023-04-03T02:36:26;100209.63;;;15.75;60.42
79563;BME280;69026;50.980;11.314;2023-04-03T02:38:56;100209.88;;;15.73;60.61
79563;BME280;69026;50.980;11.314;2023-04-03T02:41:21;100212.81;;;15.72;60.55
79563;BME280;69026;50.980;11.314;2023-04-03T02:43:49;100216.38;;;15.72;60.39
79563;BME280;69026;50.980;11.314;2023-04-03T02:46:15;100202.09;;;15.70;60.54
79563;BME280;69026;50.980;11.314;2023-04-03T02:48:41;100215.56;;;15.72;60.67
79563;BME280;69026;50.980;11.314;2023-04-03T02:51:07;100215.56;;;15.72;60.34
79563;BME280;69026;50.980;11.314;2023-04-03T02:53:33;100209.00;;;15.73;60.41
79563;BME280;69026;50.980;11.314;2023-04-03T02:56:05;100214.28;;;15.74;60.25
79563;BME280;69026;50.980;11.314;2023-04-03T02:58:31;100210.09;;;15.72;60.14
79563;BME280;69026;50.980;11.314;2023-04-03T03:00:58;100212.81;;;15.72;60.41
79563;BME280;69026;50.980;11.314;2023-04-03T03:03:24;100212.19;;;15.69;60.31
79563;BME280;69026;50.980;11.314;2023-04-03T03:06:07;100214.31;;;15.67;60.40
79563;BME280;69026;50.980;11.314;2023-04-03T03:08:34;100205.50;;;15.65;60.35
79563;BME280;69026;50.980;11.314;2023-04-03T03:11:01;100207.19;;;15.66;60.40
79563;BME280;69026;50.980;11.314;2023-04-03T03:13:27;100215.38;;;15.66;60.28
79563;BME280;69026;50.980;11.314;2023-04-03T03:15:53;100205.72;;;15.64;60.49
79563;BME280;69026;50.980;11.314;2023-04-03T03:18:19;100216.44;;;15.65;60.25
79563;BME280;69026;50.980;11.314;2023-04-03T03:20:45;100210.97;;;15.65;60.39
79563;BME280;69026;50.980;11.314;2023-04-03T03:23:11;100210.13;;;15.65;60.39
79563;BME280;69026;50.980;11.314;2023-04-03T03:25:38;100211.41;;;15.62;60.32
79563;BME280;69026;50.980;11.314;2023-04-03T03:28:05;100213.06;;;15.63;60.28
79563;BME280;69026;50.980;11.314;2023-04-03T03:30:31;100214.78;;;15.64;60.28
79563;BME280;69026;50.980;11.314;2023-04-03T03:32:57;100222.38;;;15.62;60.40
79563;BME280;69026;50.980;11.314;2023-04-03T03:35:23;100216.91;;;15.62;60.27
79563;BME280;69026;50.980;11.314;2023-04-03T03:37:48;100218.56;;;15.63;60.24
79563;BME280;69026;50.980;11.314;2023-04-03T03:40:15;100213.19;;;15.57;60.28
79563;BME280;69026;50.980;11.314;2023-04-03T03:42:41;100225.31;;;15.61;60.27
79563;BME280;69026;50.980;11.314;2023-04-03T03:45:07;100229.97;;;15.60;60.32
79563;BME280;69026;50.980;11.314;2023-04-03T03:47:34;100217.78;;;15.56;60.35
79563;BME280;69026;50.980;11.314;2023-04-03T03:50:00;100228.31;;;15.59;60.26
79563;BME280;69026;50.980;11.314;2023-04-03T03:52:26;100236.50;;;15.59;60.31
79563;BME280;69026;50.980;11.314;2023-04-03T03:54:53;100226.00;;;15.56;60.28
79563;BME280;69026;50.980;11.314;2023-04-03T03:57:19;100229.19;;;15.53;60.35
79563;BME280;69026;50.980;11.314;2023-04-03T03:59:44;100236.56;;;15.53;60.11
79563;BME280;69026;50.980;11.314;2023-04-03T04:02:11;100240.53;;;15.57;60.20
79563;BME280;69026;50.980;11.314;2023-04-03T04:04:37;100239.66;;;15.56;60.17
79563;BME280;69026;50.980;11.314;2023-04-03T04:07:03;100241.38;;;15.57;60.16
79563;BME280;69026;50.980;11.314;2023-04-03T04:09:31;100237.56;;;15.58;60.06
79563;BME280;69026;50.980;11.314;2023-04-03T04:11:57;100247.28;;;15.54;60.14
79563;BME280;69026;50.980;11.314;2023-04-03T04:14:23;100251.47;;;15.57;60.05
79563;BME280;69026;50.980;11.314;2023-04-03T04:16:50;100253.34;;;15.56;60.04
79563;BME280;69026;50.980;11.314;2023-04-03T04:19:21;100248.13;;;15.55;60.16
79563;BME280;69026;50.980;11.314;2023-04-03T04:21:48;100247.28;;;15.54;60.09
79563;BME280;69026;50.980;11.314;2023-04-03T04:24:14;100257.16;;;15.55;60.01
79563;BME280;69026;50.980;11.314;2023-04-03T04:26:40;100255.50;;;15.54;60.01
79563;BME280;69026;50.980;11.314;2023-04-03T04:29:09;100262.03;;;15.53;60.09
79563;BME280;69026;50.980;11.314;2023-04-03T04:31:36;100253.81;;;15.53;60.13
79563;BME280;69026;50.980;11.314;2023-04-03T04:34:02;100262.47;;;15.50;60.05
79563;BME280;69026;50.980;11.314;2023-04-03T04:36:28;100268.56;;;15.52;60.05
79563;BME280;69026;50.980;11.314;2023-04-03T04:38:54;100257.00;;;15.50;60.08
79563;BME280;69026;50.980;11.314;2023-04-03T04:41:22;100266.25;;;15.49;60.02
79563;BME280;69026;50.980;11.314;2023-04-03T04:43:50;100267.53;;;15.46;60.09
79563;BME280;69026;50.980;11.314;2023-04-03T04:46:16;100276.78;;;15.52;59.95
79563;BME280;69026;50.980;11.314;2023-04-03T04:48:48;100273.25;;;15.45;59.96
79563;BME280;69026;50.980;11.314;2023-04-03T04:51:16;100268.84;;;15.44;59.93
79563;BME280;69026;50.980;11.314;2023-04-03T04:53:42;100281.00;;;15.48;60.08
79563;BME280;69026;50.980;11.314;2023-04-03T04:56:11;100276.38;;;15.48;60.02
79563;BME280;69026;50.980;11.314;2023-04-03T04:58:38;100278.28;;;15.48;59.98
79563;BME280;69026;50.980;11.314;2023-04-03T05:01:07;100276.00;;;15.45;60.02
79563;BME280;69026;50.980;11.314;2023-04-03T05:03:37;100282.91;;;15.47;59.93
79563;BME280;69026;50.980;11.314;2023-04-03T05:06:04;100287.53;;;15.47;59.95
79563;BME280;69026;50.980;11.314;2023-04-03T05:08:32;100286.47;;;15.48;59.84
79563;BME280;69026;50.980;11.314;2023-04-03T05:10:58;100290.03;;;15.48;59.94
79563;BME280;69026;50.980;11.314;2023-04-03T05:13:26;100292.78;;;15.48;59.79
79563;BME280;69026;50.980;11.314;2023-04-03T05:15:53;100300.97;;;15.48;59.87
79563;BME280;69026;50.980;11.314;2023-04-03T05:18:19;100303.94;;;15.47;59.75
79563;BME280;69026;50.980;11.314;2023-04-03T05:20:48;100296.81;;;15.46;59.75
79563;BME280;69026;50.980;11.314;2023-04-03T05:23:14;100290.25;;;15.47;59.80
79563;BME280;69026;50.980;11.314;2023-04-03T05:25:40;100295.72;;;15.47;59.77
79563;BME280;69026;50.980;11.314;2023-04-03T05:28:08;100289.06;;;15.43;59.82
79563;BME280;69026;50.980;11.314;2023-04-03T05:30:34;100296.19;;;15.44;59.79
79563;BME280;69026;50.980;11.314;2023-04-03T05:33:02;100290.09;;;15.42;59.88
79563;BME280;69026;50.980;11.314;2023-04-03T05:35:37;100292.41;;;15.45;59.72
79563;BME280;69026;50.980;11.314;2023-04-03T05:38:07;100287.75;;;15.45;59.71
79563;BME280;69026;50.980;11.314;2023-04-03T05:40:33;100289.44;;;15.46;59.76
79563;BME280;69026;50.980;11.314;2023-04-03T05:42:59;100297.00;;;15.44;59.56
79563;BME280;69026;50.980;11.314;2023-04-03T05:45:28;100311.72;;;15.50;59.82
79563;BME280;69026;50.980;11.314;2023-04-03T05:47:56;100310.63;;;15.51;59.58
79563;BME280;69026;50.980;11.314;2023-04-03T05:50:23;100314.19;;;15.52;59.51
79563;BME280;69026;50.980;11.314;2023-04-03T05:52:52;100316.94;;;15.52;59.54
79563;BME280;69026;50.980;11.314;2023-04-03T05:55:21;100320.53;;;15.52;59.48
79563;BME280;69026;50.980;11.314;2023-04-03T05:57:47;100326.63;;;15.54;59.42
79563;BME280;69026;50.980;11.314;2023-04-03T06:00:14;100329.34;;;15.54;59.40
79563;BME280;69026;50.980;11.314;2023-04-03T06:02:44;100318.69;;;15.46;59.43
79563;BME280;69026;50.980;11.314;2023-04-03T06:05:16;100334.81;;;15.54;59.33
79563;BME280;69026;50.980;11.314;2023-04-03T06:07:42;100339.88;;;15.51;59.42
79563;BME280;69026;50.980;11.314;2023-04-03T06:10:11;100344.06;;;15.53;59.43
79563;BME280;69026;50.980;11.314;2023-04-03T06:12:38;100339.44;;;15.54;59.31
79563;BME280;69026;50.980;11.314;2023-04-03T06:15:04;100340.28;;;15.54;59.39
79563;BME280;69026;50.980;11.314;2023-04-03T06:17:30;100338.59;;;15.53;59.27
79563;BME280;69026;50.980;11.314;2023-04-03T06:19:56;100344.69;;;15.55;59.34
79563;BME280;69026;50.980;11.314;2023-04-03T06:22:24;100346.81;;;15.53;59.34
79563;BME280;69026;50.980;11.314;2023-04-03T06:24:51;100350.84;;;15.51;59.39
79563;BME280;69026;50.980;11.314;2023-04-03T06:27:17;100350.84;;;15.51;59.42
79563;BME280;69026;50.980;11.314;2023-04-03T06:29:42;100359.44;;;15.54;59.37
79563;BME280;69026;50.980;11.314;2023-04-03T06:32:10;100355.00;;;15.53;59.40
79563;BME280;69026;50.980;11.314;2023-04-03T06:34:36;100354.19;;;15.53;59.25
79563;BME280;69026;50.980;11.314;2023-04-03T06:37:02;100361.31;;;15.54;59.62
79563;BME280;69026;50.980;11.314;2023-04-03T06:39:28;100356.91;;;15.53;59.58
79563;BME280;69026;50.980;11.314;2023-04-03T06:41:54;100357.75;;;15.53;59.66
79563;BME280;69026;50.980;11.314;2023-04-03T06:44:28;100361.09;;;15.55;59.58
79563;BME280;69026;50.980;11.314;2023-04-03T06:46:54;100360.03;;;15.56;59.67
79563;BME280;69026;50.980;11.314;2023-04-03T06:49:20;100355.19;;;15.58;59.55
79563;BME280;69026;50.980;11.314;2023-04-03T06:51:47;100355.19;;;15.58;59.63
79563;BME280;69026;50.980;11.314;2023-04-03T06:54:12;100366.53;;;15.62;59.64
79563;BME280;69026;50.980;11.314;2023-04-03T06:56:40;100378.09;;;15.64;59.73
79563;BME280;69026;50.980;11.314;2023-04-03T06:59:06;100358.53;;;15.60;59.50
79563;BME280;69026;50.980;11.314;2023-04-03T07:01:31;100373.44;;;15.64;59.58
79563;BME280;69026;50.980;11.314;2023-04-03T07:03:57;100371.31;;;15.66;59.78
79563;BME280;69026;50.980;11.314;2023-04-03T07:06:24;100374.69;;;15.68;59.69
79563;BME280;69026;50.980;11.314;2023-04-03T07:08:52;100380.16;;;15.68;59.78
79563;BME280;69026;50.980;11.314;2023-04-03T07:11:18;100389.41;;;15.67;59.75
79563;BME280;69026;50.980;11.314;2023-04-03T07:13:45;100380.38;;;15.67;59.80
79563;BME280;69026;50.980;11.314;2023-04-03T07:16:11;100390.66;;;15.72;59.80
79563;BME280;69026;50.980;11.314;2023-04-03T07:18:37;100390.66;;;15.72;59.56
79563;BME280;69026;50.980;11.314;2023-04-03T07:21:04;100394.03;;;15.74;59.54
79563;BME280;69026;50.980;11.314;2023-04-03T07:23:30;100398.22;;;15.76;59.51
79563;BME280;69026;50.980;11.314;2023-04-03T07:25:56;100393.56;;;15.77;59.50
79563;BME280;69026;50.980;11.314;2023-04-03T07:28:22;100408.69;;;15.79;59.27
79563;BME280;69026;50.980;11.314;2023-04-03T07:30:53;100398.56;;;15.80;59.46
79563;BME280;69026;50.980;11.314;2023-04-03T07:33:22;100400.47;;;15.79;59.52
79563;BME280;69026;50.980;11.314;2023-04-03T07:35:48;100411.38;;;15.86;59.28
79563;BME280;69026;50.980;11.314;2023-04-03T07:38:14;100403.16;;;15.86;59.41
79563;BME280;69026;50.980;11.314;2023-04-03T07:40:46;100410.91;;;15.89;59.48
79563;BME280;69026;50.980;11.314;2023-04-03T07:43:12;100407.72;;;15.92;59.28
79563;BME280;69026;50.980;11.314;2023-04-03T07:45:37;100407.91;;;15.97;59.33
79563;BME280;69026;50.980;11.314;2023-04-03T07:48:07;100416.03;;;16.04;59.20
79563;BME280;69026;50.980;11.314;2023-04-03T07:50:33;100401.50;;;16.03;59.08
79563;BME280;69026;50.980;11.314;2023-04-03T07:52:58;100417.66;;;16.11;59.05
79563;BME280;69026;50.980;11.314;2023-04-03T07:55:25;100404.59;;;16.14;59.09
79563;BME280;69026;50.980;11.314;2023-04-03T07:57:51;100420.09;;;16.20;59.10
79563;BME280;69026;50.980;11.314;2023-04-03T08:00:17;100424.75;;;16.19;59.00
79563;BME280;69026;50.980;11.314;2023-04-03T08:02:44;100431.81;;;16.27;58.95
79563;BME280;69026;50.980;11.314;2023-04-03T08:05:10;100424.00;;;16.30;58.99
79563;BME280;69026;50.980;11.314;2023-04-03T08:07:37;100430.69;;;16.35;58.94
79563;BME280;69026;50.980;11.314;2023-04-03T08:10:03;100420.59;;;16.35;58.94
79563;BME280;69026;50.980;11.314;2023-04-03T08:12:30;100433.34;;;16.41;59.00
79563;BME280;69026;50.980;11.314;2023-04-03T08:14:59;100433.97;;;16.43;58.92
79563;BME280;69026;50.980;11.314;2023-04-03T08:17:26;100425.13;;;16.41;58.83
79563;BME280;69026;50.980;11.314;2023-04-03T08:19:52;100426.50;;;16.50;58.91
79563;BME280;69026;50.980;11.314;2023-04-03T08:22:18;100438.69;;;16.54;58.79
79563;BME280;69026;50.980;11.314;2023-04-03T08:24:44;100438.22;;;16.58;58.80
79563;BME280;69026;50.980;11.314;2023-04-03T08:27:09;100424.31;;;16.59;58.74
79563;BME280;69026;50.980;11.314;2023-04-03T08:29:36;100432.13;;;16.56;58.59
79563;BME280;69026;50.980;11.314;2023-04-03T08:32:04;100432.66;;;16.64;58.75
79563;BME280;69026;50.980;11.314;2023-04-03T08:34:30;100437.69;;;16.67;58.52
79563;BME280;69026;50.980;11.314;2023-04-03T08:37:01;100433.44;;;16.71;58.51
79563;BME280;69026;50.980;11.314;2023-04-03T08:39:27;100437.63;;;16.74;58.47
79563;BME280;69026;50.980;11.314;2023-04-03T08:41:55;100425.91;;;16.67;58.49
79563;BME280;69026;50.980;11.314;2023-04-03T08:47:24;100432.91;;;17.00;58.48
79563;BME280;69026;50.980;11.314;2023-04-03T08:50:05;100431.28;;;17.22;57.54
79563;BME280;69026;50.980;11.314;2023-04-03T08:52:38;100426.84;;;17.40;57.12
79563;BME280;69026;50.980;11.314;2023-04-03T08:55:26;100427.94;;;17.62;56.50
79563;BME280;69026;50.980;11.314;2023-04-03T09:00:28;100431.38;;;17.88;56.04
79563;BME280;69026;50.980;11.314;2023-04-03T09:02:56;100437.22;;;18.03;55.48
79563;BME280;69026;50.980;11.314;2023-04-03T09:08:00;100434.63;;;18.20;54.99
79563;BME280;69026;50.980;11.314;2023-04-03T09:10:33;100439.84;;;18.21;55.00
79563;BME280;69026;50.980;11.314;2023-04-03T09:13:06;100429.69;;;18.34;54.97
79563;BME280;69026;50.980;11.314;2023-04-03T09:15:33;100432.19;;;18.35;54.53
79563;BME280;69026;50.980;11.314;2023-04-03T09:18:05;100441.16;;;18.31;54.93
79563;BME280;69026;50.980;11.314;2023-04-03T09:23:50;100434.22;;;18.40;54.66
79563;BME280;69026;50.980;11.314;2023-04-03T09:26:19;100436.72;;;18.53;53.93
79563;BME280;69026;50.980;11.314;2023-04-03T09:28:48;100439.94;;;18.50;54.44
79563;BME280;69026;50.980;11.314;2023-04-03T09:31:24;100429.34;;;18.30;54.35
79563;BME280;69026;50.980;11.314;2023-04-03T09:33:53;100433.75;;;18.19;54.84
79563;BME280;69026;50.980;11.314;2023-04-03T09:37:12;100439.38;;;18.01;55.06
79563;BME280;69026;50.980;11.314;2023-04-03T09:39:52;100434.00;;;17.83;55.84
79563;BME280;69026;50.980;11.314;2023-04-03T09:42:23;100439.19;;;17.72;55.97
79563;BME280;69026;50.980;11.314;2023-04-03T09:45:01;100441.09;;;17.72;56.46
79563;BME280;69026;50.980;11.314;2023-04-03T09:47:33;100432.03;;;17.71;56.33
79563;BME280;69026;50.980;11.314;2023-04-03T09:52:39;100440.91;;;17.85;55.97
79563;BME280;69026;50.980;11.314;2023-04-03T09:55:23;100433.03;;;17.89;55.75
79563;BME280;69026;50.980;11.314;2023-04-03T09:58:01;100438.16;;;17.85;55.72
79563;BME280;69026;50.980;11.314;2023-04-03T10:02:57;100429.56;;;18.17;54.50
79563;BME280;69026;50.980;11.314;2023-04-03T10:05:33;100424.88;;;18.41;54.08
79563;BME280;69026;50.980;11.314;2023-04-03T10:10:44;100425.50;;;18.08;45.52
79563;BME280;69026;50.980;11.314;2023-04-03T10:13:14;100424.28;;;17.26;32.53
79563;BME280;69026;50.980;11.314;2023-04-03T10:15:45;100416.31;;;16.58;29.41
79563;BME280;69026;50.980;11.314;2023-04-03T10:21:44;100411.81;;;14.88;28.73
79563;BME280;69026;50.980;11.314;2023-04-03T10:24:18;100407.34;;;14.55;29.20
79563;BME280;69026;50.980;11.314;2023-04-03T10:27:19;100413.97;;;14.00;28.96
79563;BME280;69026;50.980;11.314;2023-04-03T10:30:16;100405.97;;;14.19;28.36
79563;BME280;69026;50.980;11.314;2023-04-03T10:49:40;100397.91;;;16.83;37.85
79563;BME280;69026;50.980;11.314;2023-04-03T10:52:22;100399.66;;;17.08;37.15
79563;BME280;69026;50.980;11.314;2023-04-03T10:55:27;100397.59;;;16.73;37.83
79563;BME280;69026;50.980;11.314;2023-04-03T10:57:56;100387.78;;;16.47;37.54
79563;BME280;69026;50.980;11.314;2023-04-03T11:00:35;100388.00;;;16.45;38.53
79563;BME280;69026;50.980;11.314;2023-04-03T11:03:32;100383.91;;;16.54;39.39
79563;BME280;69026;50.980;11.314;2023-04-03T11:06:02;100385.06;;;16.77;39.58
79563;BME280;69026;50.980;11.314;2023-04-03T11:08:33;100382.31;;;16.77;40.29
79563;BME280;69026;50.980;11.314;2023-04-03T11:11:16;100381.50;;;16.77;40.76
79563;BME280;69026;50.980;11.314;2023-04-03T11:14:04;100371.78;;;17.11;40.49
79563;BME280;69026;50.980;11.314;2023-04-03T11:16:36;100377.00;;;17.54;40.18
79563;BME280;69026;50.980;11.314;2023-04-03T11:19:20;100377.25;;;17.65;40.11
79563;BME280;69026;50.980;11.314;2023-04-03T11:22:13;100365.13;;;17.19;41.63
79563;BME280;69026;50.980;11.314;2023-04-03T11:24:43;100364.13;;;17.13;42.03
79563;BME280;69026;50.980;11.314;2023-04-03T11:27:17;100360.81;;;17.11;42.37
79563;BME280;69026;50.980;11.314;2023-04-03T11:29:49;100360.31;;;17.56;41.75
79563;BME280;69026;50.980;11.314;2023-04-03T11:34:53;100365.31;;;17.47;42.19
79563;BME280;69026;50.980;11.314;2023-04-03T11:37:29;100360.41;;;17.37;42.87
79563;BME280;69026;50.980;11.314;2023-04-03T11:40:01;100357.78;;;17.43;43.07
79563;BME280;69026;50.980;11.314;2023-04-03T11:42:42;100362.91;;;17.51;43.06
79563;BME280;69026;50.980;11.314;2023-04-03T11:50:31;100357.91;;;17.59;43.33
79563;BME280;69026;50.980;11.314;2023-04-03T11:53:03;100339.19;;;17.68;43.59
79563;BME280;69026;50.980;11.314;2023-04-03T12:01:01;100346.56;;;17.44;44.23
79563;BME280;69026;50.980;11.314;2023-04-03T12:26:46;100336.31;;;17.40;45.85
79563;BME280;69026;50.980;11.314;2023-04-03T12:43:11;100409.53;;;17.93;45.86
79563;BME280;69026;50.980;11.314;2023-04-03T12:48:29;100323.09;;;18.48;42.32
79563;BME280;69026;50.980;11.314;2023-04-03T12:50:56;100308.38;;;18.13;41.38
79563;BME280;69026;50.980;11.314;2023-04-03T12:53:32;100288.25;;;17.84;41.43
79563;BME280;69026;50.980;11.314;2023-04-03T12:58:44;100279.53;;;17.40;42.33
79563;BME280;69026;50.980;11.314;2023-04-03T13:01:12;100277.59;;;17.17;42.29
79563;BME280;69026;50.980;11.314;2023-04-03T13:03:42;100278.28;;;17.01;42.21
79563;BME280;69026;50.980;11.314;2023-04-03T13:06:22;100280.66;;;16.85;42.41
79563;BME280;69026;50.980;11.314;2023-04-03T13:08:54;100263.44;;;16.78;42.47
79563;BME280;69026;50.980;11.314;2023-04-03T13:11:23;100264.75;;;16.75;41.94
79563;BME280;69026;50.980;11.314;2023-04-03T13:14:02;100276.63;;;16.69;42.57
79563;BME280;69026;50.980;11.314;2023-04-03T13:16:29;100278.84;;;16.61;40.97
79563;BME280;69026;50.980;11.314;2023-04-03T13:18:55;100280.25;;;16.51;42.19
79563;BME280;69026;50.980;11.314;2023-04-03T13:21:34;100277.53;;;16.51;42.38
79563;BME280;69026;50.980;11.314;2023-04-03T13:24:02;100283.09;;;16.45;43.98
79563;BME280;69026;50.980;11.314;2023-04-03T13:26:31;100294.19;;;16.50;45.21
79563;BME280;69026;50.980;11.314;2023-04-03T13:29:07;100297.31;;;16.65;46.46
79563;BME280;69026;50.980;11.314;2023-04-03T13:31:35;100298.44;;;16.76;47.27
79563;BME280;69026;50.980;11.314;2023-04-03T13:34:19;100290.38;;;16.81;47.31
79563;BME280;69026;50.980;11.314;2023-04-03T13:39:27;100297.34;;;16.95;47.99
79563;BME280;69026;50.980;11.314;2023-04-03T13:41:55;100294.72;;;17.01;47.95
79563;BME280;69026;50.980;11.314;2023-04-03T13:46:49;100290.34;;;17.11;48.29
79563;BME280;69026;50.980;11.314;2023-04-03T13:51:46;100289.38;;;17.17;48.23
79563;BME280;69026;50.980;11.314;2023-04-03T13:54:28;100280.22;;;17.12;48.59
79563;BME280;69026;50.980;11.314;2023-04-03T13:56:57;100286.91;;;17.16;48.62
79563;BME280;69026;50.980;11.314;2023-04-03T13:59:34;100281.41;;;17.16;48.87
79563;BME280;69026;50.980;11.314;2023-04-03T14:07:03;100274.63;;;17.19;48.83
79563;BME280;69026;50.980;11.314;2023-04-03T14:09:29;100273.31;;;17.21;49.15
79563;BME280;69026;50.980;11.314;2023-04-03T14:11:59;100286.91;;;17.16;49.13
79563;BME280;69026;50.980;11.314;2023-04-03T14:14:34;100286.19;;;17.09;49.28
79563;BME280;69026;50.980;11.314;2023-04-03T14:17:02;100283.63;;;16.95;49.69
79563;BME280;69026;50.980;11.314;2023-04-03T14:21:54;100282.31;;;16.86;50.07
79563;BME280;69026;50.980;11.314;2023-04-03T14:24:21;100284.31;;;16.79;50.14
79563;BME280;69026;50.980;11.314;2023-04-03T14:26:49;100268.19;;;16.71;50.37
79563;BME280;69026;50.980;11.314;2023-04-03T14:29:18;100272.44;;;16.67;50.49
79563;BME280;69026;50.980;11.314;2023-04-03T14:31:45;100265.16;;;16.61;50.58
79563;BME280;69026;50.980;11.314;2023-04-03T14:34:12;100268.34;;;16.58;50.46
79563;BME280;69026;50.980;11.314;2023-04-03T14:36:38;100280.63;;;16.55;50.64
79563;BME280;69026;50.980;11.314;2023-04-03T14:39:07;100275.63;;;16.52;50.92
79563;BME280;69026;50.980;11.314;2023-04-03T14:41:35;100268.09;;;16.47;51.07
79563;BME280;69026;50.980;11.314;2023-04-03T14:44:01;100274.88;;;16.45;51.13
79563;BME280;69026;50.980;11.314;2023-04-03T14:46:30;100276.16;;;16.42;51.20
79563;BME280;69026;50.980;11.314;2023-04-03T14:48:57;100270.09;;;16.40;51.28
79563;BME280;69026;50.980;11.314;2023-04-03T14:51:23;100273.25;;;16.37;51.38
79563;BME280;69026;50.980;11.314;2023-04-03T14:53:49;100277.31;;;16.35;51.50